createdAt,value
2022-10-26T00:01:51.680Z,11.80
2022-10-26T00:04:18.517Z,11.80
2022-10-26T00:06:45.252Z,11.70
2022-10-26T00:09:12.030Z,11.80
2022-10-26T00:11:38.823Z,11.80
2022-10-26T00:14:05.607Z,11.70
2022-10-26T00:16:32.498Z,11.70
2022-10-26T00:18:59.237Z,11.70
2022-10-26T00:21:26.244Z,11.70
2022-10-26T00:23:53.157Z,11.70
2022-10-26T00:26:19.903Z,11.70
2022-10-26T00:28:46.793Z,11.70
2022-10-26T00:31:15.838Z,11.70
2022-10-26T00:33:42.525Z,11.70
2022-10-26T00:36:10.301Z,11.70
2022-10-26T00:38:37.824Z,11.70
2022-10-26T00:41:05.101Z,11.60
2022-10-26T00:43:32.035Z,11.70
2022-10-26T00:45:59.850Z,11.70
2022-10-26T00:48:36.250Z,11.60
2022-10-26T00:51:04.329Z,11.60
2022-10-26T00:53:33.393Z,11.60
2022-10-26T00:56:01.242Z,11.60
2022-10-26T00:58:28.410Z,11.60
2022-10-26T01:00:55.590Z,11.50
2022-10-26T01:03:25.574Z,11.60
2022-10-26T01:05:53.755Z,11.50
2022-10-26T01:08:20.913Z,11.50
2022-10-26T01:10:47.805Z,11.50
2022-10-26T01:13:15.003Z,11.50
2022-10-26T01:15:41.823Z,11.50
2022-10-26T01:18:13.441Z,11.50
2022-10-26T01:20:58.385Z,11.50
2022-10-26T01:23:28.226Z,11.50
2022-10-26T01:25:54.907Z,11.40
2022-10-26T01:28:33.665Z,11.30
2022-10-26T01:31:01.359Z,11.30
2022-10-26T01:33:28.154Z,11.30
2022-10-26T01:36:00.431Z,11.30
2022-10-26T01:38:30.704Z,11.30
2022-10-26T01:41:06.730Z,11.30
2022-10-26T01:43:35.506Z,11.20
2022-10-26T01:46:03.979Z,11.20
2022-10-26T01:48:30.801Z,11.20
2022-10-26T01:50:58.232Z,11.20
2022-10-26T01:53:26.239Z,11.20
2022-10-26T01:55:54.312Z,11.20
2022-10-26T01:58:39.913Z,11.30
2022-10-26T02:01:25.084Z,11.30
2022-10-26T02:04:07.302Z,11.30
2022-10-26T02:06:43.713Z,11.20
2022-10-26T02:09:10.541Z,11.30
2022-10-26T02:11:42.800Z,11.20
2022-10-26T02:14:09.567Z,11.20
2022-10-26T02:16:56.069Z,11.30
2022-10-26T02:19:30.889Z,11.30
2022-10-26T02:22:02.321Z,11.30
2022-10-26T02:24:30.421Z,11.30
2022-10-26T02:26:57.451Z,11.30
2022-10-26T02:29:24.736Z,11.30
2022-10-26T02:31:51.927Z,11.30
2022-10-26T02:34:22.004Z,11.20
2022-10-26T02:36:49.646Z,11.20
2022-10-26T02:39:16.764Z,11.30
2022-10-26T02:41:44.160Z,11.30
2022-10-26T02:44:10.902Z,11.30
2022-10-26T02:46:37.799Z,11.30
2022-10-26T02:49:04.771Z,11.30
2022-10-26T02:51:39.007Z,11.30
2022-10-26T02:54:15.273Z,11.30
2022-10-26T02:56:45.593Z,11.40
2022-10-26T02:59:13.784Z,11.40
2022-10-26T03:01:40.859Z,11.40
2022-10-26T03:04:07.811Z,11.30
2022-10-26T03:06:34.625Z,11.40
2022-10-26T03:09:01.329Z,11.40
2022-10-26T03:11:28.310Z,11.30
2022-10-26T03:13:55.107Z,11.40
2022-10-26T03:16:21.895Z,11.40
2022-10-26T03:18:48.682Z,11.40
2022-10-26T03:21:15.507Z,11.40
2022-10-26T03:23:42.496Z,11.40
2022-10-26T03:26:09.209Z,11.40
2022-10-26T03:28:35.965Z,11.40
2022-10-26T03:31:02.943Z,11.40
2022-10-26T03:33:29.991Z,11.40
2022-10-26T03:35:57.021Z,11.50
2022-10-26T03:38:24.066Z,11.40
2022-10-26T03:40:50.887Z,11.40
2022-10-26T03:43:18.009Z,11.40
2022-10-26T03:45:44.737Z,11.40
2022-10-26T03:48:11.681Z,11.40
2022-10-26T03:50:38.670Z,11.40
2022-10-26T03:53:05.603Z,11.40
2022-10-26T03:55:32.449Z,11.40
2022-10-26T03:57:59.192Z,11.30
2022-10-26T04:00:26.068Z,11.30
2022-10-26T04:02:57.325Z,11.30
2022-10-26T04:05:25.122Z,11.30
2022-10-26T04:07:52.608Z,11.30
2022-10-26T04:10:19.425Z,11.30
2022-10-26T04:12:46.199Z,11.30
2022-10-26T04:15:12.990Z,11.30
2022-10-26T04:17:39.714Z,11.30
2022-10-26T04:20:06.916Z,11.20
2022-10-26T04:22:33.753Z,11.20
2022-10-26T04:25:00.615Z,11.20
2022-10-26T04:27:27.384Z,11.20
2022-10-26T04:29:54.092Z,11.20
2022-10-26T04:32:21.008Z,11.20
2022-10-26T04:34:47.995Z,11.20
2022-10-26T04:37:14.815Z,11.10
2022-10-26T04:39:48.392Z,11.10
2022-10-26T04:42:15.317Z,11.10
2022-10-26T04:44:42.088Z,11.10
2022-10-26T04:47:10.248Z,11.10
2022-10-26T04:49:37.172Z,11.00
2022-10-26T04:52:05.495Z,11.10
2022-10-26T04:54:32.292Z,11.00
2022-10-26T04:56:59.020Z,11.00
2022-10-26T04:59:26.064Z,11.00
2022-10-26T05:01:53.000Z,11.00
2022-10-26T05:04:19.964Z,11.00
2022-10-26T05:06:48.583Z,10.90
2022-10-26T05:09:15.653Z,10.90
2022-10-26T05:11:42.472Z,10.80
2022-10-26T05:14:09.744Z,10.80
2022-10-26T05:16:36.548Z,10.70
2022-10-26T05:19:03.299Z,10.70
2022-10-26T05:21:30.469Z,10.70
2022-10-26T05:23:57.355Z,10.60
2022-10-26T05:26:24.485Z,10.60
2022-10-26T05:28:53.050Z,10.60
2022-10-26T05:31:20.383Z,10.50
2022-10-26T05:33:50.847Z,10.50
2022-10-26T05:36:18.392Z,10.50
2022-10-26T05:38:46.645Z,10.40
2022-10-26T05:41:13.669Z,10.40
2022-10-26T05:43:40.519Z,10.30
2022-10-26T05:46:07.293Z,10.20
2022-10-26T05:48:34.409Z,10.20
2022-10-26T05:51:01.595Z,10.20
2022-10-26T05:53:29.495Z,10.20
2022-10-26T05:55:56.932Z,10.20
2022-10-26T05:58:24.523Z,10.20
2022-10-26T06:01:02.157Z,10.20
2022-10-26T06:03:32.047Z,10.10
2022-10-26T06:06:01.643Z,10.10
2022-10-26T06:08:31.186Z,10.10
2022-10-26T06:11:01.382Z,10.10
2022-10-26T06:13:28.319Z,10.10
2022-10-26T06:16:10.425Z,10.10
2022-10-26T06:18:59.558Z,10.10
2022-10-26T06:21:36.014Z,10.10
2022-10-26T06:24:12.796Z,10.10
2022-10-26T06:26:50.383Z,10.10
2022-10-26T06:29:33.172Z,10.00
2022-10-26T06:32:03.725Z,10.00
2022-10-26T06:34:34.071Z,9.90
2022-10-26T06:37:01.801Z,9.90
2022-10-26T06:39:35.591Z,9.80
2022-10-26T06:42:04.897Z,9.80
2022-10-26T06:44:32.244Z,9.80
2022-10-26T06:47:06.479Z,9.80
2022-10-26T06:49:57.242Z,9.80
2022-10-26T06:52:25.259Z,9.80
2022-10-26T06:54:55.763Z,9.80
2022-10-26T06:57:23.847Z,9.80
2022-10-26T06:59:52.390Z,9.80
2022-10-26T07:02:19.924Z,9.80
2022-10-26T07:04:47.187Z,9.70
2022-10-26T07:07:17.807Z,9.70
2022-10-26T07:09:44.743Z,9.80
2022-10-26T07:12:11.662Z,9.70
2022-10-26T07:14:38.776Z,9.80
2022-10-26T07:17:05.916Z,9.80
2022-10-26T07:19:32.841Z,9.80
2022-10-26T07:22:03.187Z,9.80
2022-10-26T07:24:30.769Z,9.80
2022-10-26T07:26:58.422Z,9.80
2022-10-26T07:29:26.653Z,9.80
2022-10-26T07:34:20.838Z,9.80
2022-10-26T07:36:47.889Z,9.80
2022-10-26T07:39:14.941Z,9.80
2022-10-26T07:41:41.870Z,9.90
2022-10-26T07:44:08.722Z,9.90
2022-10-26T07:46:40.866Z,9.90
2022-10-26T07:49:07.829Z,10.00
2022-10-26T07:51:34.873Z,10.00
2022-10-26T07:54:01.872Z,10.10
2022-10-26T07:56:28.981Z,10.10
2022-10-26T07:58:55.962Z,10.20
2022-10-26T08:01:22.944Z,10.20
2022-10-26T08:03:53.833Z,10.20
2022-10-26T08:06:24.422Z,10.30
2022-10-26T08:08:52.087Z,10.30
2022-10-26T08:11:18.969Z,10.30
2022-10-26T08:13:46.147Z,10.30
2022-10-26T08:16:13.534Z,10.50
2022-10-26T08:18:40.413Z,10.50
2022-10-26T08:21:13.460Z,10.50
2022-10-26T08:23:42.969Z,10.60
2022-10-26T08:26:12.983Z,10.70
2022-10-26T08:28:40.383Z,10.70
2022-10-26T08:31:07.449Z,10.80
2022-10-26T08:33:34.554Z,10.80
2022-10-26T08:36:02.538Z,10.90
2022-10-26T08:38:29.856Z,10.90
2022-10-26T08:40:57.422Z,11.00
2022-10-26T08:43:28.243Z,11.10
2022-10-26T08:46:00.744Z,11.20
2022-10-26T08:48:30.434Z,11.20
2022-10-26T08:51:01.181Z,11.30
2022-10-26T08:53:34.370Z,11.40
2022-10-26T08:56:06.481Z,11.40
2022-10-26T08:58:41.862Z,11.40
2022-10-26T09:01:09.496Z,11.50
2022-10-26T09:03:36.482Z,11.60
2022-10-26T09:06:12.563Z,11.60
2022-10-26T09:08:47.840Z,11.60
2022-10-26T09:11:23.890Z,11.70
2022-10-26T09:14:00.198Z,11.70
2022-10-26T09:16:38.936Z,11.80
2022-10-26T09:19:08.892Z,11.80
2022-10-26T09:21:39.110Z,11.90
2022-10-26T09:24:12.245Z,12.00
2022-10-26T09:26:58.455Z,12.00
2022-10-26T09:29:27.864Z,12.10
2022-10-26T09:31:56.111Z,12.10
2022-10-26T09:34:32.431Z,12.20
2022-10-26T09:36:59.414Z,12.20
2022-10-26T09:39:49.550Z,12.30
2022-10-26T09:42:19.014Z,12.30
2022-10-26T09:44:55.139Z,12.40
2022-10-26T09:47:22.026Z,12.40
2022-10-26T09:49:56.894Z,12.50
2022-10-26T09:52:23.940Z,12.50
2022-10-26T09:54:50.792Z,12.60
2022-10-26T09:57:19.847Z,12.70
2022-10-26T09:59:51.300Z,12.70
2022-10-26T10:02:38.003Z,12.80
2022-10-26T10:05:39.203Z,12.80
2022-10-26T10:08:26.861Z,12.90
2022-10-26T10:10:59.868Z,13.00
2022-10-26T10:13:31.252Z,13.00
2022-10-26T10:16:03.554Z,13.10
2022-10-26T10:18:30.579Z,13.10
2022-10-26T10:20:58.691Z,13.20
2022-10-26T10:23:30.189Z,13.20
2022-10-26T10:26:06.644Z,13.20
2022-10-26T10:28:34.687Z,13.20
2022-10-26T10:31:03.353Z,13.30
2022-10-26T10:33:36.367Z,13.40
2022-10-26T10:36:05.599Z,13.40
2022-10-26T10:38:36.793Z,13.40
2022-10-26T10:41:05.039Z,13.40
2022-10-26T10:43:32.010Z,13.50
2022-10-26T10:45:59.835Z,13.50
2022-10-26T10:48:28.671Z,13.60
2022-10-26T10:51:15.934Z,13.60
2022-10-26T10:53:45.892Z,13.60
2022-10-26T10:56:43.626Z,13.70
2022-10-26T10:59:20.138Z,13.70
2022-10-26T11:02:00.946Z,13.80
2022-10-26T11:04:33.346Z,13.80
2022-10-26T11:07:03.529Z,13.80
2022-10-26T11:09:32.529Z,13.90
2022-10-26T11:12:18.339Z,14.00
2022-10-26T11:15:00.473Z,14.00
2022-10-26T11:17:38.493Z,14.00
2022-10-26T11:20:12.556Z,14.10
2022-10-26T11:25:45.022Z,14.10
2022-10-26T11:28:38.176Z,14.10
2022-10-26T11:31:08.170Z,14.20
2022-10-26T11:33:39.359Z,14.20
2022-10-26T11:36:09.070Z,14.30
2022-10-26T11:38:55.988Z,14.30
2022-10-26T11:41:31.390Z,14.30
2022-10-26T11:44:18.516Z,14.30
2022-10-26T11:46:48.022Z,14.40
2022-10-26T11:49:18.931Z,14.50
2022-10-26T11:51:49.833Z,14.50
2022-10-26T11:56:54.028Z,14.60
2022-10-26T11:59:23.494Z,14.60
2022-10-26T12:01:52.483Z,14.60
2022-10-26T12:04:21.923Z,14.70
2022-10-26T12:06:50.074Z,14.70
2022-10-26T12:09:26.398Z,14.80
2022-10-26T12:12:02.898Z,14.80
2022-10-26T12:14:36.692Z,14.80
2022-10-26T12:17:22.416Z,14.90
2022-10-26T12:20:11.094Z,14.90
2022-10-26T12:22:40.133Z,14.90
2022-10-26T12:25:25.146Z,15.00
2022-10-26T12:27:53.568Z,15.00
2022-10-26T12:30:28.397Z,15.10
2022-10-26T12:33:00.205Z,15.10
2022-10-26T12:35:38.285Z,15.10
2022-10-26T12:38:23.450Z,15.10
2022-10-26T12:41:06.777Z,15.20
2022-10-26T12:43:35.133Z,15.20
2022-10-26T12:46:14.363Z,15.30
2022-10-26T12:48:45.349Z,15.30
2022-10-26T12:51:18.483Z,15.30
2022-10-26T12:53:53.202Z,15.30
2022-10-26T12:56:24.315Z,15.40
2022-10-26T12:58:51.085Z,15.40
2022-10-26T13:01:36.785Z,15.40
2022-10-26T13:04:21.154Z,15.50
2022-10-26T13:07:06.848Z,15.50
2022-10-26T13:09:34.030Z,15.50
2022-10-26T13:12:02.167Z,15.60
2022-10-26T13:14:28.925Z,15.60
2022-10-26T13:16:56.057Z,15.60
2022-10-26T13:19:32.920Z,15.60
2022-10-26T13:22:00.141Z,15.60
2022-10-26T13:24:28.971Z,15.60
2022-10-26T13:27:05.056Z,15.70
2022-10-26T13:29:32.278Z,15.70
2022-10-26T13:32:00.389Z,15.70
2022-10-26T13:34:29.267Z,15.70
2022-10-26T13:37:07.830Z,15.80
2022-10-26T13:39:37.613Z,15.80
2022-10-26T13:42:05.298Z,15.70
2022-10-26T13:44:38.817Z,15.80
2022-10-26T13:47:10.946Z,15.80
2022-10-26T13:49:42.579Z,15.80
2022-10-26T13:52:18.128Z,15.80
2022-10-26T13:54:48.146Z,15.80
2022-10-26T13:57:44.339Z,15.80
2022-10-26T14:00:16.733Z,15.80
2022-10-26T14:02:43.814Z,15.80
2022-10-26T14:05:15.303Z,15.80
2022-10-26T14:07:54.087Z,15.80
2022-10-26T14:10:25.194Z,15.90
2022-10-26T14:12:52.673Z,15.80
2022-10-26T14:15:24.091Z,15.90
2022-10-26T14:17:52.571Z,15.90
2022-10-26T14:20:33.188Z,15.90
2022-10-26T14:23:02.260Z,16.00
2022-10-26T14:25:42.379Z,16.00
2022-10-26T14:28:23.583Z,16.00
2022-10-26T14:30:51.461Z,16.00
2022-10-26T14:33:23.267Z,16.00
2022-10-26T14:35:56.767Z,16.00
2022-10-26T14:38:30.269Z,16.00
2022-10-26T14:40:57.876Z,16.00
2022-10-26T14:43:25.753Z,16.00
2022-10-26T14:45:53.595Z,16.00
2022-10-26T14:48:25.127Z,16.00
2022-10-26T14:50:59.389Z,16.00
2022-10-26T14:53:46.452Z,16.00
2022-10-26T14:56:25.522Z,16.00
2022-10-26T14:58:53.317Z,15.90
2022-10-26T15:01:23.224Z,15.90
2022-10-26T15:03:56.213Z,15.90
2022-10-26T15:06:23.052Z,15.90
2022-10-26T15:08:56.970Z,15.90
2022-10-26T15:11:24.638Z,15.80
2022-10-26T15:13:51.419Z,15.80
2022-10-26T15:16:19.424Z,15.80
2022-10-26T15:18:48.382Z,15.80
2022-10-26T15:21:44.565Z,15.70
2022-10-26T15:24:19.845Z,15.70
2022-10-26T15:26:48.199Z,15.70
2022-10-26T15:29:34.090Z,15.70
2022-10-26T15:32:01.565Z,15.70
2022-10-26T15:34:28.482Z,15.60
2022-10-26T15:36:56.170Z,15.60
2022-10-26T15:39:23.065Z,15.60
2022-10-26T15:41:52.413Z,15.60
2022-10-26T15:44:21.326Z,15.60
2022-10-26T15:46:49.342Z,15.50
2022-10-26T15:49:20.095Z,15.50
2022-10-26T15:51:47.738Z,15.50
2022-10-26T15:54:15.442Z,15.40
2022-10-26T15:56:43.757Z,15.40
2022-10-26T15:59:13.280Z,15.40
2022-10-26T16:01:40.254Z,15.40
2022-10-26T16:04:08.556Z,15.30
2022-10-26T16:06:38.216Z,15.30
2022-10-26T16:09:07.468Z,15.30
2022-10-26T16:11:34.230Z,15.30
2022-10-26T16:14:03.653Z,15.20
2022-10-26T16:16:31.394Z,15.20
2022-10-26T16:19:18.306Z,15.10
2022-10-26T16:21:45.192Z,15.10
2022-10-26T16:24:12.534Z,15.10
2022-10-26T16:26:40.922Z,15.10
2022-10-26T16:29:07.675Z,15.10
2022-10-26T16:31:34.926Z,15.10
2022-10-26T16:34:04.172Z,15.00
2022-10-26T16:36:34.652Z,15.00
2022-10-26T16:41:29.670Z,14.90
2022-10-26T16:43:56.765Z,14.90
2022-10-26T16:46:26.173Z,14.80
2022-10-26T16:49:00.544Z,14.80
2022-10-26T16:51:28.088Z,14.80
2022-10-26T16:53:56.879Z,14.80
2022-10-26T16:56:28.250Z,14.70
2022-10-26T16:58:56.718Z,14.70
2022-10-26T17:01:25.012Z,14.70
2022-10-26T17:03:56.373Z,14.70
2022-10-26T17:06:24.602Z,14.70
2022-10-26T17:08:51.528Z,14.70
2022-10-26T17:11:19.968Z,14.70
2022-10-26T17:13:47.422Z,14.60
2022-10-26T17:16:16.036Z,14.70
2022-10-26T17:18:43.758Z,14.60
2022-10-26T17:21:11.459Z,14.70
2022-10-26T17:23:38.651Z,14.60
2022-10-26T17:26:09.406Z,14.60
2022-10-26T17:28:39.697Z,14.60
2022-10-26T17:31:06.619Z,14.60
2022-10-26T17:33:34.811Z,14.60
2022-10-26T17:39:14.415Z,14.60
2022-10-26T17:41:41.505Z,14.60
2022-10-26T17:44:10.203Z,14.60
2022-10-26T17:46:37.111Z,14.60
2022-10-26T17:49:06.005Z,14.70
2022-10-26T17:51:35.081Z,14.70
2022-10-26T17:54:13.565Z,14.70
2022-10-26T17:56:40.490Z,14.70
2022-10-26T17:59:09.638Z,14.80
2022-10-26T18:01:36.695Z,14.70
2022-10-26T18:04:03.931Z,14.70
2022-10-26T18:06:36.929Z,14.80
2022-10-26T18:09:04.463Z,14.80
2022-10-26T18:11:32.527Z,14.80
2022-10-26T18:14:00.490Z,14.80
2022-10-26T18:16:32.406Z,14.80
2022-10-26T18:19:04.473Z,14.80
2022-10-26T18:21:34.966Z,14.80
2022-10-26T18:24:19.294Z,14.80
2022-10-26T18:26:46.172Z,14.80
2022-10-26T18:29:13.218Z,14.80
2022-10-26T18:31:41.393Z,14.80
2022-10-26T18:34:14.779Z,14.80
2022-10-26T18:36:41.749Z,14.80
2022-10-26T18:39:08.598Z,14.80
2022-10-26T18:41:35.622Z,14.80
2022-10-26T18:44:09.883Z,14.80
2022-10-26T18:47:03.269Z,14.80
2022-10-26T18:49:33.713Z,14.80
2022-10-26T18:52:01.909Z,14.70
2022-10-26T18:54:31.746Z,14.70
2022-10-26T18:56:59.907Z,14.70
2022-10-26T18:59:32.174Z,14.70
2022-10-26T19:02:15.135Z,14.70
2022-10-26T19:04:42.080Z,14.60
2022-10-26T19:07:09.389Z,14.60
2022-10-26T19:10:04.192Z,14.60
2022-10-26T19:12:58.267Z,14.60
2022-10-26T19:15:26.337Z,14.60
2022-10-26T19:17:56.739Z,14.50
2022-10-26T19:20:50.087Z,14.50
2022-10-26T19:23:17.178Z,14.50
2022-10-26T19:25:44.163Z,14.50
2022-10-26T19:28:11.385Z,14.60
2022-10-26T19:30:40.507Z,14.60
2022-10-26T19:33:07.449Z,14.60
2022-10-26T19:35:50.815Z,14.50
2022-10-26T19:38:35.771Z,14.60
2022-10-26T19:41:15.122Z,14.60
2022-10-26T19:44:13.337Z,14.60
2022-10-26T19:46:40.528Z,14.50
2022-10-26T19:49:08.712Z,14.50
2022-10-26T19:51:38.035Z,14.50
2022-10-26T19:54:31.296Z,14.50
2022-10-26T19:57:00.509Z,14.50
2022-10-26T19:59:30.886Z,14.50
2022-10-26T20:02:02.821Z,14.50
2022-10-26T20:04:33.352Z,14.40
2022-10-26T20:07:04.971Z,14.40
2022-10-26T20:09:33.356Z,14.40
2022-10-26T20:12:03.596Z,14.40
2022-10-26T20:14:30.498Z,14.40
2022-10-26T20:16:57.430Z,14.40
2022-10-26T20:19:24.222Z,14.30
2022-10-26T20:21:51.072Z,14.30
2022-10-26T20:24:18.902Z,14.30
2022-10-26T20:26:45.720Z,14.20
2022-10-26T20:29:12.763Z,14.20
2022-10-26T20:31:39.571Z,14.20
2022-10-26T20:34:06.407Z,14.20
2022-10-26T20:36:36.949Z,14.20
2022-10-26T20:39:08.835Z,14.20
2022-10-26T20:41:40.750Z,14.20
2022-10-26T20:44:16.227Z,14.20
2022-10-26T20:46:43.081Z,14.20
2022-10-26T20:49:16.148Z,14.20
2022-10-26T20:52:08.308Z,14.20
2022-10-26T20:54:41.535Z,14.10
2022-10-26T20:57:12.814Z,14.10
2022-10-26T20:59:43.345Z,14.10
2022-10-26T21:02:14.511Z,14.10
2022-10-26T21:04:41.446Z,14.10
2022-10-26T21:07:08.546Z,14.00
2022-10-26T21:09:36.824Z,14.00
2022-10-26T21:12:04.284Z,14.00
2022-10-26T21:14:31.128Z,14.00
2022-10-26T21:16:57.956Z,14.00
2022-10-26T21:19:24.842Z,14.00
2022-10-26T21:21:51.866Z,13.90
2022-10-26T21:24:18.562Z,13.90
2022-10-26T21:26:45.848Z,13.90
2022-10-26T21:29:12.786Z,13.90
2022-10-26T21:31:39.830Z,13.90
2022-10-26T21:34:09.212Z,13.90
2022-10-26T21:36:41.051Z,13.90
2022-10-26T21:39:07.970Z,13.90
2022-10-26T21:41:37.462Z,13.90
2022-10-26T21:44:09.867Z,13.80
2022-10-26T21:46:42.700Z,13.80
2022-10-26T21:49:09.864Z,13.80
2022-10-26T21:51:36.891Z,13.80
2022-10-26T21:54:09.370Z,13.80
2022-10-26T21:56:45.184Z,13.80
2022-10-26T21:59:13.566Z,13.80
2022-10-26T22:01:40.668Z,13.70
2022-10-26T22:04:09.668Z,13.80
2022-10-26T22:06:36.684Z,13.70
2022-10-26T22:09:05.497Z,13.80
2022-10-26T22:11:34.157Z,13.70
2022-10-26T22:14:04.420Z,13.70
2022-10-26T22:16:32.104Z,13.70
2022-10-26T22:19:20.231Z,13.70
2022-10-26T22:21:48.771Z,13.70
2022-10-26T22:24:15.638Z,13.70
2022-10-26T22:26:44.814Z,13.70
2022-10-26T22:29:11.596Z,13.70
2022-10-26T22:31:40.455Z,13.60
2022-10-26T22:34:08.873Z,13.70
2022-10-26T22:36:36.410Z,13.70
2022-10-26T22:39:07.121Z,13.70
2022-10-26T22:41:33.915Z,13.70
2022-10-26T22:44:00.856Z,13.70
2022-10-26T22:46:28.448Z,13.70
2022-10-26T22:48:57.231Z,13.70
2022-10-26T22:51:31.681Z,13.70
2022-10-26T22:54:01.044Z,13.70
2022-10-26T22:56:29.706Z,13.70
2022-10-26T22:58:56.621Z,13.70
2022-10-26T23:01:25.726Z,13.70
2022-10-26T23:03:53.596Z,13.70
2022-10-26T23:06:20.603Z,13.70
2022-10-26T23:08:47.407Z,13.70
2022-10-26T23:11:15.915Z,13.70
2022-10-26T23:13:43.073Z,13.70
2022-10-26T23:16:09.775Z,13.60
2022-10-26T23:18:37.008Z,13.60
2022-10-26T23:21:04.368Z,13.60
2022-10-26T23:23:31.072Z,13.60
2022-10-26T23:26:01.228Z,13.60
2022-10-26T23:28:27.992Z,13.60
2022-10-26T23:30:54.936Z,13.60
2022-10-26T23:33:21.934Z,13.60
2022-10-26T23:35:49.842Z,13.60
2022-10-26T23:38:17.695Z,13.60
2022-10-26T23:40:54.981Z,13.60
2022-10-26T23:43:22.241Z,13.60
2022-10-26T23:45:49.385Z,13.60
2022-10-26T23:48:16.617Z,13.50
2022-10-26T23:50:44.351Z,13.50
2022-10-26T23:53:11.683Z,13.50
2022-10-26T23:55:38.816Z,13.50
2022-10-26T23:58:06.039Z,13.50
